Station: Padthaway

  Atmospheric Gas Attenuation - ITU Rec 676-11   --------------- db/100km ---------------
Date Time Temp RH % AH g/m3 Dew Point Wind Direction Speed kph Gust kph Barometer mB Rainfall Since 9am 24GHz 47GHz 76GHz 122GHz 134GHz 241GHz
13 07:20 4.9 99 6.69 4.8 7 9 1013.1 0.2 15.9 25.3 36.2 94.8 83.0 283.4
13 07:10 4.9 99 6.69 4.8 9 9 1013.1 0.2 15.9 25.3 36.2 94.8 83.0 283.4
13 07:00 5 99 6.73 4.9 9 11 1013.1 0.2 16.0 25.3 36.3 95.1 83.5 284.9
13 06:50 5.1 99 6.78 5 7 9 1013.1 0.2 16.1 25.4 36.5 95.6 84.0 287.0
13 06:40 5.4 99 6.91 5.3 7 9 1013.1 0.2 16.3 25.5 36.9 96.7 85.5 292.2
13 06:30 5.3 99 6.87 5.2 9 13 1013.1 0.2 16.3 25.5 36.8 96.3 85.1 290.6
13 06:20 5.5 99 6.96 5.4 9 11 1013.1 0.2 16.4 25.6 37.1 97.1 86.1 294.3
13 06:10 5.4 99 6.91 5.3 11 11 1013.1 0.2 16.3 25.5 36.9 96.7 85.5 292.2
13 06:00 5.5 99 6.96 5.4 9 11 1013.1 0.2 16.4 25.6 37.1 97.1 86.1 294.3
13 05:50 5.4 99 6.91 5.3 6 7 1013.1 0.2 16.3 25.5 36.9 96.7 85.5 292.2
13 05:40 5.5 99 6.96 5.4 7 9 1013.1 0.2 16.4 25.6 37.1 97.1 86.1 294.3
13 05:30 5.7 99 7.05 5.6 7 11 1013.1 0.2 16.6 25.7 37.4 97.9 87.1 297.9
13 05:20 5.8 99 7.1 5.7 7 9 1013.1 0.2 16.7 25.7 37.5 98.3 87.7 299.9
13 05:10 5.9 99 7.14 5.8 7 7 1013.1 0.2 16.8 25.8 37.6 98.6 88.1 301.5
13 04:50 5.9 99 7.14 5.8 6 7 1013.1 0.2 16.8 25.8 37.6 98.6 88.1 301.5
13 04:40 5.9 99 7.14 5.8 0 0 1013.1 0.2 16.8 25.8 37.6 98.6 88.1 301.5
13 04:30 5.8 99 7.1 5.7 6 6 1013.1 0.2 16.7 25.7 37.5 98.3 87.7 299.9
13 04:20 5.9 99 7.14 5.8 4 6 1013.1 0.2 16.8 25.8 37.6 98.6 88.1 301.5
13 04:10 5.8 99 7.1 5.7 6 6 1013.1 0 16.7 25.7 37.5 98.3 87.7 299.9
13 04:00 5.7 99 7.05 5.6 0 0 1013.1 0 16.6 25.7 37.4 97.9 87.1 297.9
13 03:50 5.7 99 7.05 5.6 0 0 1013.1 0 16.6 25.7 37.4 97.9 87.1 297.9
13 03:40 5.6 99 7 5.5 0 0 1013.1 0 16.5 25.6 37.2 97.4 86.5 295.8
13 03:30 5.5 99 6.96 5.4 0 2 1013.1 0 16.4 25.6 37.1 97.1 86.1 294.3
13 03:20 5.6 99 7 5.5 2 6 1013.1 0 16.5 25.6 37.2 97.4 86.5 295.8
13 03:10 5.6 99 7 5.5 6 7 1013.1 0 16.5 25.6 37.2 97.4 86.5 295.8
13 03:00 5.7 99 7.05 5.6 7 9 1013.1 0 16.6 25.7 37.4 97.9 87.1 297.9
13 02:50 5.7 99 7.05 5.6 6 7 1013.1 0 16.6 25.7 37.4 97.9 87.1 297.9
13 02:40 5.7 99 7.05 5.6 7 7 1013.1 0 16.6 25.7 37.4 97.9 87.1 297.9
13 02:30 5.8 99 7.1 5.7 6 7 1013.1 0 16.7 25.7 37.5 98.3 87.7 299.9
13 02:20 5.9 99 7.14 5.8 0 0 1013.1 0 16.8 25.8 37.6 98.6 88.1 301.5
13 02:10 6 99 7.19 5.9 4 6 1013.1 0 16.9 25.8 37.8 99.1 88.7 303.6
13 02:00 6 99 7.19 5.9 9 13 1013.1 0 16.9 25.8 37.8 99.1 88.7 303.6
13 01:50 6 99 7.19 5.9 9 11 1013.1 0 16.9 25.8 37.8 99.1 88.7 303.6
13 01:40 6.1 99 7.24 6 11 11 1013.1 0 17.0 25.9 38.0 99.5 89.3 305.6
13 01:30 6.3 99 7.33 6.2 9 11 1013.1 0 17.2 26.0 38.3 100.3 90.3 309.2
13 01:20 6.2 99 7.28 6.1 9 11 1013.1 0 17.1 25.9 38.1 99.8 89.7 307.2
13 01:10 5.8 99 7.1 5.7 7 9 1013.1 0 16.7 25.7 37.5 98.3 87.7 299.9
13 01:00 5.7 99 7.05 5.6 2 7 1013.1 0 16.6 25.7 37.4 97.9 87.1 297.9
13 00:50 5.6 99 7 5.5 0 0 1013.1 0 16.5 25.6 37.2 97.4 86.5 295.8
13 00:40 5.6 99 7 5.5 6 6 1013.1 0 16.5 25.6 37.2 97.4 86.5 295.8
13 00:30 5.7 99 7.05 5.6 7 9 1013.1 0 16.6 25.7 37.4 97.9 87.1 297.9
13 00:20 6 99 7.19 5.9 7 9 1013.1 0 16.9 25.8 37.8 99.1 88.7 303.6
13 00:10 5.9 99 7.14 5.8 9 9 1013.1 0 16.8 25.8 37.6 98.6 88.1 301.5
13 00:00 5.8 99 7.1 5.7 9 11 1013.1 0 16.7 25.7 37.5 98.3 87.7 299.9
12 23:50 6 99 7.19 5.9 7 9 1013.1 0 16.9 25.8 37.8 99.1 88.7 303.6
12 23:40 5.6 99 7 5.5 9 9 1013.1 0 16.5 25.6 37.2 97.4 86.5 295.8
12 23:30 6 99 7.19 5.9 9 11 1013.1 0 16.9 25.8 37.8 99.1 88.7 303.6
12 23:20 6.1 99 7.24 6 11 11 1013.1 0 17.0 25.9 38.0 99.5 89.3 305.6
12 23:10 5.7 99 7.05 5.6 9 11 1013.1 0 16.6 25.7 37.4 97.9 87.1 297.9
12 23:00 5.6 98 6.93 5.3 11 13 1013.1 0 16.4 25.5 36.9 96.6 85.6 292.4
12 22:50 5.4 98 6.84 5.1 11 11 1013.1 0 16.2 25.4 36.6 95.9 84.5 288.8
12 22:40 5.9 98 7.07 5.6 9 9 1013.1 0 16.7 25.6 37.4 97.8 87.2 298.1
12 22:30 6.1 98 7.16 5.8 9 11 1013.1 0 16.8 25.7 37.6 98.6 88.2 301.7
12 22:20 6.4 97 7.23 6 9 9 1013.1 0 17.0 25.8 37.8 99.0 88.8 303.9
12 22:10 6.6 97 7.33 6.2 7 7 1013.1 0 17.2 25.9 38.1 99.9 90.0 308.0
12 22:00 6.8 97 7.42 6.4 9 11 1013.1 0 17.4 26.0 38.4 100.6 91.0 311.6
12 21:50 6.9 96 7.39 6.3 9 11 1013.1 0 17.3 25.9 38.2 100.2 90.5 309.7
12 21:40 6.7 95 7.22 6 9 9 1013.1 0 16.9 25.7 37.6 98.5 88.3 302.3
12 21:30 6.7 95 7.22 6 7 9 1013.1 0 16.9 25.7 37.6 98.5 88.3 302.3
12 21:20 6.6 94 7.1 5.7 6 7 1013.1 0 16.7 25.5 37.1 97.3 86.8 296.9
12 21:10 6.8 94 7.19 5.9 6 7 1013.1 0 16.9 25.6 37.4 98.1 87.8 300.5
12 21:00 7.3 94 7.43 6.4 9 9 1013.1 0 17.4 25.9 38.2 100.1 90.5 310.1
12 20:50 7.5 94 7.53 6.6 7 9 1013.1 0 17.6 26.0 38.5 101.0 91.7 314.1
12 20:40 7.9 94 7.72 7 7 7 1013.1 0 18.0 26.2 39.1 102.6 93.8 321.7
12 20:30 8.1 93 7.74 7 9 11 1013.1 0 18.0 26.1 39.1 102.5 93.9 321.8
12 20:20 7.9 92 7.56 6.7 9 11 1013.1 0 17.6 25.9 38.4 100.8 91.6 314.0
12 20:10 7.8 91 7.43 6.4 7 9 1013.1 0 17.4 25.7 38.0 99.5 90.0 308.1
12 20:00 7.8 90 7.35 6.3 7 9 1013.1 0 17.2 25.6 37.6 98.6 88.9 304.3
12 19:50 8.2 90 7.54 6.7 7 9 1013.1 0 17.6 25.8 38.2 100.2 91.0 311.8
12 19:40 8.5 90 7.69 7 9 11 1013.1 0 17.9 25.9 38.7 101.5 92.7 317.8
12 19:30 8.7 90 7.79 7.2 7 11 1013.1 0 18.1 26.0 39.0 102.3 93.8 321.8
12 19:20 8.7 89 7.7 7 7 9 1013.1 0 17.9 25.9 38.6 101.3 92.6 317.5
12 19:10 8.7 88 7.61 6.8 9 9 1013.1 0 17.7 25.7 38.3 100.3 91.4 313.1
12 19:00 8.9 87 7.62 6.9 9 11 1013.1 0 17.7 25.7 38.2 100.2 91.3 312.8
12 18:50 9.1 86 7.63 6.9 9 9 1013.1 0 17.7 25.7 38.2 100.0 91.2 312.5
12 18:40 9.3 85 7.64 6.9 9 9 1013.1 0 17.7 25.6 38.1 99.9 91.1 312.2
12 18:30 9.7 83 7.65 7 7 7 1013.1 0 17.7 25.5 37.9 99.5 90.7 311.0
12 18:20 10.2 80 7.61 6.9 7 7 1013.1 0 17.6 25.3 37.5 98.4 89.6 307.2
12 18:10 11 79 7.91 7.5 9 9 1013.1 0 18.2 25.6 38.4 100.6 92.7 318.1
12 18:00 11.4 78 8.01 7.7 11 13 1013.1 0 18.4 25.6 38.6 101.2 93.5 321.1
12 17:50 11.3 80 8.16 8 11 13 1013.1 0 18.8 25.9 39.3 103.0 95.7 328.6
12 17:40 11 80 8.01 7.7 9 11 1013.1 0 18.5 25.7 38.8 101.7 94.0 322.7
12 17:30 11.3 77 7.86 7.4 9 11 1013.1 0 18.1 25.4 38.0 99.7 91.6 314.5
12 17:20 12.3 75 8.14 8 7 9 1013.1 0 18.7 25.6 38.7 101.5 94.2 323.5
12 17:10 12.6 74 8.19 8.1 9 11 1013.1 0 18.8 25.6 38.7 101.6 94.5 324.5
12 17:00 13 73 8.28 8.3 11 15 1013.1 0 18.9 25.6 38.9 102.1 95.2 327.1
12 16:50 13.4 71 8.25 8.3 11 13 1013.1 0 18.9 25.4 38.6 101.2 94.3 324.0
12 16:40 13.8 69 8.22 8.2 15 19 1013.1 0 18.8 25.3 38.3 100.4 93.4 321.0
12 16:30 14.2 69 8.43 8.6 13 17 1013.1 0 19.2 25.5 38.9 102.1 95.7 328.9
12 16:20 14.1 68 8.25 8.3 13 15 1013.1 0 18.8 25.2 38.3 100.3 93.4 321.2
12 16:10 14.3 66 8.11 8 19 24 1013.1 0 18.5 25.0 37.6 98.6 91.4 314.0
12 16:00 14.8 69 8.74 9.2 17 22 1013.1 0 19.8 25.8 39.8 104.6 99.0 340.6
12 15:50 14.6 68 8.51 8.8 13 15 1013.1 0 19.4 25.5 39.0 102.4 96.2 330.9
12 15:40 14.4 71 8.78 9.2 11 13 1013.1 0 19.9 26.0 40.2 105.6 100.0 344.2
12 15:30 14 70 8.44 8.6 19 28 1013.1 0 19.2 25.6 39.1 102.5 96.0 330.2
12 15:20 14.8 70 8.87 9.4 17 22 1013.1 0 20.1 26.0 40.4 106.0 100.7 346.6
12 15:10 14.4 69 8.53 8.8 19 24 1013.1 0 19.4 25.6 39.2 102.9 96.7 332.7
12 15:00 14.7 73 9.19 9.9 13 19 1013.1 0 20.8 26.6 41.7 109.6 105.0 361.8
12 14:50 14.1 73 8.86 9.3 15 17 1013.1 0 20.1 26.2 40.7 106.8 101.4 349.2
12 14:40 14.6 74 9.26 10 20 24 1013.1 0 21.0 26.7 42.0 110.5 106.1 365.6

Last Refresh: 13-Jul-2020 07:38:31

Most of the information presented on this site is sourced from the Bureau of Meteorology.  Copyright in all material sourced from the Bureau of Meteorology resides with the Commonwealth of Australia.